Portada
METAR-TAF:

METAR-TAF

Aeroports :

Meriden-Markham Municipal Airport

Meriden, Connecticut, Estats Units d'Amèrica

latitud: 41-30-35N, longitud: 072-49-40W, altitud: 31 m

Observació

L'informe es va fer fa 43 minuts, a les 17:53 UTC
Vent 6 kt amb direcció variable
Temperatura 24°C
Humitat 41%
Pressió 1021 hPa
Visibilitat: 16.1 km
Núvols disperses a una alçada de 5500 ft

METAR: KMMK 241753Z AUTO VRB06KT 10SM SCT055 24/10 A3016 RMK AO2 SLP211 T02390100 10244 20161 56004

Hora: 14:36 (18:36 UTC)


TAF: manca

Observacions i pronòstics meteorològics de més de 4000 aeroports (METAR i TAF).

Les estacions disponibles són els punts grocs i vermells al mapa.

Posi el ratolí al punt desitjat per veure el nom de l'estació.

Feu clic per veure les observacions i els pronòstics meteorològics.

Per canviar el mapa: feu clic els botons verds amb una creu de color negre per apropar; al botó verd amb un guió per allunyar la imatge; o en les fletxes verdes per a mapes adjacents.


METAR-TAF: